createdAt,value
2022-10-23T00:01:45.547Z,99657.91
2022-10-23T00:04:31.325Z,99658.13
2022-10-23T00:06:59.146Z,99658.91
2022-10-23T00:09:27.005Z,99656.53
2022-10-23T00:11:54.876Z,99662.25
2022-10-23T00:14:25.195Z,99649.63
2022-10-23T00:16:53.014Z,99655.94
2022-10-23T00:19:20.682Z,99645.88
2022-10-23T00:21:48.593Z,99652.22
2022-10-23T00:24:16.364Z,99659.13
2022-10-23T00:26:44.443Z,99661.28
2022-10-23T00:29:12.711Z,99665.22
2022-10-23T00:31:40.587Z,99662.84
2022-10-23T00:34:09.192Z,99668.00
2022-10-23T00:36:37.034Z,99669.19
2022-10-23T00:39:05.704Z,99675.50
2022-10-23T00:41:33.775Z,99678.09
2022-10-23T00:44:09.207Z,99676.88
2022-10-23T00:46:39.365Z,99677.66
2022-10-23T00:49:09.664Z,99678.25
2022-10-23T00:51:42.594Z,99668.59
2022-10-23T00:54:23.454Z,99677.47
2022-10-23T00:56:56.536Z,99677.47
2022-10-23T00:59:25.634Z,99674.72
2022-10-23T01:01:53.688Z,99676.88
2022-10-23T01:04:23.428Z,99674.72
2022-10-23T01:07:23.304Z,99680.22
2022-10-23T01:10:19.387Z,99684.78
2022-10-23T01:13:33.150Z,99678.66
2022-10-23T01:16:16.320Z,99683.63
2022-10-23T01:19:09.145Z,99678.28
2022-10-23T01:22:03.126Z,99683.22
2022-10-23T01:24:58.963Z,99677.09
2022-10-23T01:28:00.556Z,99677.91
2022-10-23T01:30:32.430Z,99676.31
2022-10-23T01:33:17.276Z,99675.91
2022-10-23T01:36:24.006Z,99682.22
2022-10-23T01:39:18.050Z,99685.16
2022-10-23T01:42:19.272Z,99689.66
2022-10-23T01:44:55.923Z,99681.41
2022-10-23T01:47:30.884Z,99679.78
2022-10-23T01:50:08.757Z,99675.81
2022-10-23T01:52:37.770Z,99678.59
2022-10-23T01:55:10.048Z,99672.88
2022-10-23T01:57:41.978Z,99674.03
2022-10-23T02:00:18.411Z,99674.16
2022-10-23T02:02:56.021Z,99676.91
2022-10-23T02:05:32.007Z,99678.88
2022-10-23T02:08:01.775Z,99672.34
2022-10-23T02:13:45.183Z,99671.31
2022-10-23T02:16:46.507Z,99673.28
2022-10-23T02:19:33.429Z,99676.00
2022-10-23T02:22:23.501Z,99676.00
2022-10-23T02:25:19.393Z,99683.88
2022-10-23T02:27:56.281Z,99665.31
2022-10-23T02:30:32.005Z,99684.28
2022-10-23T02:33:12.545Z,99681.91
2022-10-23T02:35:41.418Z,99683.44
2022-10-23T02:38:41.950Z,99672.78
2022-10-23T02:41:43.561Z,99677.09
2022-10-23T02:44:30.546Z,99666.25
2022-10-23T02:47:35.692Z,99666.59
2022-10-23T02:50:28.350Z,99683.34
2022-10-23T02:52:56.252Z,99683.72
2022-10-23T02:55:29.948Z,99688.59
2022-10-23T02:58:10.481Z,99696.06
2022-10-23T03:00:53.967Z,99698.97
2022-10-23T03:03:33.459Z,99693.84
2022-10-23T03:06:01.730Z,99702.50
2022-10-23T03:08:29.725Z,99705.84
2022-10-23T03:10:58.417Z,99708.00
2022-10-23T03:13:28.922Z,99705.97
2022-10-23T03:15:56.646Z,99711.06
2022-10-23T03:18:27.462Z,99725.16
2022-10-23T03:20:59.982Z,99731.47
2022-10-23T03:23:28.037Z,99714.47
2022-10-23T03:25:56.549Z,99730.28
2022-10-23T03:28:44.523Z,99728.34
2022-10-23T03:31:12.482Z,99733.81
2022-10-23T03:33:40.622Z,99725.56
2022-10-23T03:36:11.344Z,99727.91
2022-10-23T03:38:39.011Z,99726.94
2022-10-23T03:41:06.978Z,99725.16
2022-10-23T03:43:34.859Z,99730.28
2022-10-23T03:46:03.231Z,99726.75
2022-10-23T03:48:31.968Z,99727.13
2022-10-23T03:50:59.953Z,99711.53
2022-10-23T03:53:27.655Z,99721.22
2022-10-23T03:55:55.357Z,99727.66
2022-10-23T03:58:23.144Z,99725.56
2022-10-23T04:00:51.475Z,99735.22
2022-10-23T04:03:19.200Z,99731.88
2022-10-23T04:05:49.973Z,99743.47
2022-10-23T04:08:20.090Z,99744.78
2022-10-23T04:10:50.760Z,99728.63
2022-10-23T04:13:21.801Z,99734.94
2022-10-23T04:15:51.530Z,99734.53
2022-10-23T04:18:20.133Z,99732.88
2022-10-23T04:20:49.522Z,99727.50
2022-10-23T04:23:17.713Z,99743.81
2022-10-23T04:28:16.023Z,99741.75
2022-10-23T04:30:43.698Z,99735.44
2022-10-23T04:33:13.290Z,99734.22
2022-10-23T04:35:41.068Z,99728.78
2022-10-23T04:38:08.911Z,99742.72
2022-10-23T04:40:37.648Z,99740.69
2022-10-23T04:43:05.857Z,99744.41
2022-10-23T04:45:38.045Z,99743.81
2022-10-23T04:48:06.056Z,99744.78
2022-10-23T04:50:59.248Z,99739.78
2022-10-23T04:53:46.893Z,99743.13
2022-10-23T04:56:31.223Z,99746.38
2022-10-23T04:59:10.100Z,99736.09
2022-10-23T05:01:39.620Z,99739.56
2022-10-23T05:04:09.103Z,99730.84
2022-10-23T05:06:56.790Z,99725.63
2022-10-23T05:09:40.722Z,99729.50
2022-10-23T05:12:25.564Z,99730.63
2022-10-23T05:14:54.412Z,99737.69
2022-10-23T05:17:35.960Z,99736.09
2022-10-23T05:20:09.375Z,99731.97
2022-10-23T05:22:40.733Z,99728.19
2022-10-23T05:25:13.141Z,99735.84
2022-10-23T05:27:45.911Z,99734.28
2022-10-23T05:30:15.965Z,99724.22
2022-10-23T05:32:44.999Z,99730.47
2022-10-23T05:35:20.440Z,99734.19
2022-10-23T05:37:53.023Z,99725.38
2022-10-23T05:40:24.177Z,99738.94
2022-10-23T05:42:57.936Z,99747.47
2022-10-23T05:45:50.689Z,99759.63
2022-10-23T05:48:35.390Z,99762.44
2022-10-23T05:51:11.761Z,99753.53
2022-10-23T05:53:55.768Z,99764.28
2022-10-23T05:56:52.163Z,99768.41
2022-10-23T05:59:29.951Z,99764.91
2022-10-23T06:02:36.196Z,99769.38
2022-10-23T06:05:12.689Z,99768.78
2022-10-23T06:08:01.301Z,99776.06
2022-10-23T06:10:29.073Z,99780.84
2022-10-23T06:13:00.378Z,99786.81
2022-10-23T06:15:28.163Z,99783.06
2022-10-23T06:18:05.608Z,99781.56
2022-10-23T06:20:38.893Z,99800.69
2022-10-23T06:23:12.143Z,99794.78
2022-10-23T06:26:12.579Z,99795.91
2022-10-23T06:28:51.971Z,99796.69
2022-10-23T06:31:20.430Z,99804.81
2022-10-23T06:33:51.121Z,99808.25
2022-10-23T06:36:18.987Z,99806.53
2022-10-23T06:38:46.864Z,99805.84
2022-10-23T06:41:19.821Z,99809.00
2022-10-23T06:43:53.454Z,99816.94
2022-10-23T06:46:36.495Z,99795.75
2022-10-23T06:49:04.292Z,99797.97
2022-10-23T06:51:36.732Z,99804.31
2022-10-23T06:54:05.922Z,99804.75
2022-10-23T07:10:30.370Z,99800.66
2022-10-23T07:13:01.250Z,99793.63
2022-10-23T07:15:47.263Z,99792.50
2022-10-23T07:18:20.128Z,99796.53
2022-10-23T07:21:11.375Z,99796.59
2022-10-23T07:23:41.001Z,99791.72
2022-10-23T07:26:17.435Z,99785.25
2022-10-23T07:28:48.376Z,99794.53
2022-10-23T07:31:28.156Z,99788.53
2022-10-23T07:34:14.487Z,99800.59
2022-10-23T07:36:43.968Z,99795.28
2022-10-23T07:39:12.139Z,99795.56
2022-10-23T07:41:47.457Z,99789.09
2022-10-23T07:44:15.641Z,99791.31
2022-10-23T07:46:43.304Z,99789.56
2022-10-23T07:49:11.942Z,99788.81
2022-10-23T07:51:40.915Z,99784.47
2022-10-23T07:54:12.385Z,99774.22
2022-10-23T07:57:02.177Z,99772.84
2022-10-23T07:59:48.502Z,99775.75
2022-10-23T08:16:53.229Z,99769.34
2022-10-23T08:19:21.127Z,99778.38
2022-10-23T08:21:54.916Z,99772.28
2022-10-23T08:24:23.435Z,99771.84
2022-10-23T08:26:51.464Z,99772.88
2022-10-23T08:29:23.554Z,99764.13
2022-10-23T08:31:56.340Z,99762.13
2022-10-23T08:34:59.712Z,99760.25
2022-10-23T08:37:30.625Z,99757.63
2022-10-23T08:39:58.914Z,99751.84
2022-10-23T08:42:52.821Z,99753.47
2022-10-23T08:45:28.700Z,99738.88
2022-10-23T08:48:37.973Z,99748.66
2022-10-23T08:51:40.520Z,99739.91
2022-10-23T08:54:22.442Z,99734.25
2022-10-23T08:56:59.825Z,99726.78
2022-10-23T08:59:41.834Z,99722.59
2022-10-23T09:02:46.664Z,99726.59
2022-10-23T09:05:22.520Z,99721.00
2022-10-23T09:08:16.819Z,99722.09
2022-10-23T09:11:25.560Z,99737.00
2022-10-23T09:13:55.732Z,99735.84
2022-10-23T09:17:20.970Z,99730.31
2022-10-23T09:20:07.898Z,99727.78
2022-10-23T09:22:35.654Z,99724.69
2022-10-23T09:25:03.672Z,99710.44
2022-10-23T09:27:31.430Z,99707.09
2022-10-23T09:29:59.476Z,99694.13
2022-10-23T09:32:38.320Z,99690.44
2022-10-23T09:35:06.977Z,99693.41
2022-10-23T09:37:40.030Z,99689.50
2022-10-23T09:40:38.926Z,99700.41
2022-10-23T09:43:27.998Z,99700.41
2022-10-23T09:46:06.180Z,99692.09
2022-10-23T09:48:36.747Z,99693.09
2022-10-23T09:51:21.334Z,99689.25
2022-10-23T09:54:00.154Z,99685.97
2022-10-23T09:56:28.372Z,99689.66
2022-10-23T09:59:27.814Z,99676.47
2022-10-23T10:01:59.999Z,99687.22
2022-10-23T10:04:50.798Z,99677.75
